createdAt,value
2023-09-06T00:02:16.708Z,6.53
2023-09-06T00:05:19.942Z,5.65
2023-09-06T00:08:22.842Z,5.72
2023-09-06T00:11:26.713Z,6.28
2023-09-06T00:14:30.904Z,6.27
2023-09-06T00:17:38.850Z,6.17
2023-09-06T00:20:41.807Z,6.30
2023-09-06T00:23:45.007Z,5.78
2023-09-06T00:26:48.472Z,6.15
2023-09-06T00:29:51.468Z,6.07
2023-09-06T00:32:54.519Z,6.53
2023-09-06T00:35:59.476Z,6.20
2023-09-06T00:39:02.409Z,5.60
2023-09-06T00:42:06.196Z,5.90
2023-09-06T00:45:09.300Z,7.60
2023-09-06T00:48:27.932Z,5.80
2023-09-06T00:51:34.114Z,5.95
2023-09-06T00:54:40.890Z,5.15
2023-09-06T00:57:44.511Z,5.65
2023-09-06T01:00:50.392Z,5.90
2023-09-06T01:03:53.413Z,5.57
2023-09-06T01:06:59.973Z,5.87
2023-09-06T01:10:04.836Z,5.93
2023-09-06T01:13:08.039Z,5.53
2023-09-06T01:16:11.692Z,5.80
2023-09-06T01:19:16.495Z,5.53
2023-09-06T01:22:32.808Z,6.20
2023-09-06T01:25:36.227Z,5.85
2023-09-06T01:28:41.168Z,6.90
2023-09-06T01:31:44.516Z,5.73
2023-09-06T01:34:47.394Z,6.23
2023-09-06T01:37:51.896Z,5.93
2023-09-06T01:40:55.237Z,6.28
2023-09-06T01:43:58.303Z,6.00
2023-09-06T01:47:01.088Z,6.23
2023-09-06T01:50:05.842Z,5.93
2023-09-06T01:53:08.895Z,5.78
2023-09-06T01:56:12.026Z,5.57
2023-09-06T01:59:14.736Z,5.87
2023-09-06T02:02:18.796Z,5.57
2023-09-06T02:05:22.038Z,5.77
2023-09-06T02:08:24.893Z,6.30
2023-09-06T02:11:27.972Z,5.90
2023-09-06T02:14:30.654Z,6.10
2023-09-06T02:17:37.170Z,6.10
2023-09-06T02:20:40.556Z,6.10
2023-09-06T02:23:44.685Z,6.35
2023-09-06T02:26:48.247Z,5.97
2023-09-06T02:29:53.023Z,6.15
2023-09-06T02:32:57.031Z,5.87
2023-09-06T02:35:59.764Z,6.07
2023-09-06T02:39:03.124Z,5.82
2023-09-06T02:42:05.925Z,5.53
2023-09-06T02:45:13.433Z,5.55
2023-09-06T02:48:19.924Z,5.73
2023-09-06T02:51:30.464Z,6.23
2023-09-06T02:54:33.170Z,6.20
2023-09-06T02:57:36.387Z,6.65
2023-09-06T03:00:44.062Z,5.82
2023-09-06T03:03:53.172Z,7.40
2023-09-06T03:06:59.070Z,6.00
2023-09-06T03:10:03.057Z,5.93
2023-09-06T03:13:07.012Z,5.80
2023-09-06T03:16:14.882Z,6.15
2023-09-06T03:19:18.637Z,6.50
2023-09-06T03:22:27.392Z,6.43
2023-09-06T03:25:30.750Z,6.20
2023-09-06T03:28:35.151Z,5.45
2023-09-06T03:31:44.125Z,6.97
2023-09-06T03:34:47.473Z,6.67
2023-09-06T03:37:53.568Z,6.43
2023-09-06T03:40:56.923Z,6.87
2023-09-06T03:44:01.285Z,5.75
2023-09-06T03:47:07.094Z,5.70
2023-09-06T03:50:10.233Z,6.00
2023-09-06T03:53:14.755Z,5.70
2023-09-06T03:56:17.558Z,6.25
2023-09-06T03:59:20.907Z,6.00
2023-09-06T04:02:28.774Z,5.55
2023-09-06T04:05:33.913Z,5.37
2023-09-06T04:08:38.093Z,5.80
2023-09-06T04:11:42.331Z,6.22
2023-09-06T04:14:45.204Z,5.75
2023-09-06T04:17:55.624Z,5.68
2023-09-06T04:21:01.309Z,5.57
2023-09-06T04:24:05.666Z,7.00
2023-09-06T04:27:08.421Z,6.32
2023-09-06T04:30:12.268Z,6.32
2023-09-06T04:33:16.189Z,6.12
2023-09-06T04:36:20.403Z,6.13
2023-09-06T04:39:26.473Z,5.53
2023-09-06T04:42:30.029Z,6.25
2023-09-06T04:45:33.996Z,5.60
2023-09-06T04:48:37.876Z,5.62
2023-09-06T04:51:42.424Z,6.33
2023-09-06T04:54:46.451Z,5.97
2023-09-06T04:57:50.915Z,6.47
2023-09-06T05:00:54.159Z,6.35
2023-09-06T05:03:57.274Z,6.85
2023-09-06T05:07:00.657Z,6.33
2023-09-06T05:10:04.960Z,6.70
2023-09-06T05:13:09.857Z,6.18
2023-09-06T05:16:13.408Z,6.60
2023-09-06T05:19:16.900Z,6.60
2023-09-06T05:22:20.517Z,6.17
2023-09-06T05:25:24.548Z,6.37
2023-09-06T05:28:27.486Z,6.00
2023-09-06T05:31:31.523Z,5.90
2023-09-06T05:34:34.668Z,5.82
2023-09-06T05:37:41.707Z,5.90
2023-09-06T05:40:44.985Z,5.83
2023-09-06T05:43:49.381Z,5.90
2023-09-06T05:46:52.618Z,5.70
2023-09-06T05:49:59.377Z,6.43
2023-09-06T05:53:02.319Z,5.67
2023-09-06T05:56:06.244Z,5.97
2023-09-06T05:59:09.222Z,5.25
2023-09-06T06:02:13.421Z,5.40
2023-09-06T06:05:20.077Z,5.10
2023-09-06T06:08:23.044Z,5.17
2023-09-06T06:11:28.389Z,5.30
2023-09-06T06:14:31.911Z,5.22
2023-09-06T06:17:35.055Z,4.90
2023-09-06T06:20:44.134Z,6.97
2023-09-06T06:23:49.311Z,6.43
2023-09-06T06:26:52.549Z,6.03
2023-09-06T06:29:55.786Z,6.18
2023-09-06T06:33:01.765Z,4.97
2023-09-06T06:36:08.334Z,5.68
2023-09-06T06:39:11.799Z,6.20
2023-09-06T06:42:14.879Z,5.63
2023-09-06T06:45:19.415Z,5.50
2023-09-06T06:48:23.200Z,5.87
2023-09-06T06:51:27.124Z,5.70
2023-09-06T06:54:30.238Z,5.27
2023-09-06T06:57:34.913Z,6.13
2023-09-06T07:00:38.074Z,5.47
2023-09-06T07:03:42.185Z,5.55
2023-09-06T07:06:46.037Z,5.25
2023-09-06T07:09:48.928Z,5.47
2023-09-06T07:12:52.003Z,5.30
2023-09-06T07:15:54.886Z,5.40
2023-09-06T07:18:59.993Z,4.62
2023-09-06T07:22:03.692Z,5.12
2023-09-06T07:25:09.407Z,4.13
2023-09-06T07:28:12.069Z,4.60
2023-09-06T07:31:16.024Z,4.68
2023-09-06T07:34:19.059Z,4.80
2023-09-06T07:37:22.431Z,4.43
2023-09-06T07:40:25.204Z,4.27
2023-09-06T07:43:30.040Z,4.03
2023-09-06T07:46:33.650Z,4.78
2023-09-06T07:49:36.909Z,4.40
2023-09-06T07:52:39.775Z,4.37
2023-09-06T07:55:46.720Z,4.50
2023-09-06T07:58:49.586Z,4.83
2023-09-06T08:01:53.392Z,5.30
2023-09-06T08:04:56.621Z,5.28
2023-09-06T08:07:59.896Z,5.45
2023-09-06T08:11:03.074Z,4.40
2023-09-06T08:14:05.934Z,4.00
2023-09-06T08:17:09.832Z,3.80
2023-09-06T08:20:15.855Z,3.53
2023-09-06T08:23:19.151Z,3.70
2023-09-06T08:26:21.986Z,3.57
2023-09-06T08:29:25.672Z,3.53
2023-09-06T08:32:28.570Z,3.90
2023-09-06T08:35:31.998Z,3.87
2023-09-06T08:38:35.143Z,3.80
2023-09-06T08:41:39.587Z,3.90
2023-09-06T08:44:45.217Z,4.30
2023-09-06T08:47:50.369Z,3.67
2023-09-06T08:50:56.354Z,3.97
2023-09-06T08:54:00.932Z,3.92
2023-09-06T08:57:04.357Z,4.00
2023-09-06T09:00:11.358Z,3.77
2023-09-06T09:03:14.464Z,3.42
2023-09-06T09:06:17.638Z,3.20
2023-09-06T09:09:21.508Z,3.33
2023-09-06T09:12:26.332Z,3.67
2023-09-06T09:15:33.767Z,3.17
2023-09-06T09:18:42.071Z,3.40
2023-09-06T09:21:45.072Z,3.03
2023-09-06T09:24:48.333Z,3.30
2023-09-06T09:27:59.783Z,3.43
2023-09-06T09:31:03.800Z,3.60
2023-09-06T09:34:06.743Z,3.33
2023-09-06T09:37:10.905Z,3.72
2023-09-06T09:40:31.619Z,3.22
2023-09-06T09:43:41.128Z,3.20
2023-09-06T09:46:45.356Z,3.70
2023-09-06T09:49:49.086Z,3.25
2023-09-06T09:52:53.744Z,3.10
2023-09-06T09:55:57.666Z,3.15
2023-09-06T09:59:04.403Z,3.20
2023-09-06T10:02:08.623Z,3.37
2023-09-06T10:05:18.228Z,3.50
2023-09-06T10:08:23.096Z,3.33
2023-09-06T10:11:28.160Z,3.10
2023-09-06T10:14:33.694Z,3.43
2023-09-06T10:17:37.075Z,3.30
2023-09-06T10:20:42.015Z,3.80
2023-09-06T10:23:48.368Z,3.05
2023-09-06T10:26:55.008Z,3.67
2023-09-06T10:30:04.577Z,3.67
2023-09-06T10:33:09.832Z,3.03
2023-09-06T10:36:17.618Z,3.42
2023-09-06T10:39:22.725Z,2.90
2023-09-06T10:42:25.785Z,3.05
2023-09-06T10:45:28.904Z,3.83
2023-09-06T10:48:32.158Z,3.40
2023-09-06T10:51:35.007Z,3.35
2023-09-06T10:54:46.295Z,3.22
2023-09-06T10:57:53.275Z,3.65
2023-09-06T11:01:14.878Z,3.47
2023-09-06T11:04:27.591Z,3.30
2023-09-06T11:07:50.051Z,3.30
2023-09-06T11:10:56.178Z,3.70
2023-09-06T11:14:02.684Z,3.42
2023-09-06T11:17:05.456Z,3.57
2023-09-06T11:20:13.791Z,3.43
2023-09-06T11:23:17.840Z,3.53
2023-09-06T11:26:21.241Z,3.75
2023-09-06T11:29:27.780Z,3.47
2023-09-06T11:32:33.623Z,3.30
2023-09-06T11:35:42.028Z,3.37
2023-09-06T11:38:46.528Z,3.87
2023-09-06T11:41:50.075Z,3.67
2023-09-06T11:44:55.400Z,3.10
2023-09-06T11:48:01.176Z,3.57
2023-09-06T11:51:10.182Z,3.23
2023-09-06T11:54:13.651Z,3.12
2023-09-06T11:57:32.167Z,3.80
2023-09-06T12:00:44.581Z,3.40
2023-09-06T12:03:49.081Z,3.50
2023-09-06T12:06:53.871Z,3.70
2023-09-06T12:10:06.598Z,3.50
2023-09-06T12:13:09.752Z,3.17
2023-09-06T12:16:13.341Z,3.17
2023-09-06T12:19:18.965Z,3.30
2023-09-06T12:22:22.832Z,2.87
2023-09-06T12:25:25.672Z,3.60
2023-09-06T12:28:30.799Z,2.95
2023-09-06T12:31:33.868Z,3.10
2023-09-06T12:34:37.076Z,3.00
2023-09-06T12:37:41.244Z,3.17
2023-09-06T12:40:44.846Z,3.00
2023-09-06T12:43:47.961Z,3.20
2023-09-06T12:46:51.217Z,2.87
2023-09-06T12:49:55.092Z,3.10
2023-09-06T12:52:58.436Z,2.90
2023-09-06T12:56:01.262Z,3.97
2023-09-06T12:59:06.039Z,3.10
2023-09-06T13:02:09.230Z,2.90
2023-09-06T13:05:12.536Z,3.50
2023-09-06T13:08:16.913Z,3.13
2023-09-06T13:11:23.617Z,3.25
2023-09-06T13:14:27.003Z,3.10
2023-09-06T13:17:30.595Z,2.97
2023-09-06T13:20:34.845Z,3.00
2023-09-06T13:23:37.897Z,3.03
2023-09-06T13:26:41.802Z,3.53
2023-09-06T13:29:45.254Z,3.20
2023-09-06T13:32:48.280Z,2.87
2023-09-06T13:35:51.671Z,3.33
2023-09-06T13:38:54.593Z,2.73
2023-09-06T13:41:57.796Z,3.25
2023-09-06T13:45:00.788Z,3.00
2023-09-06T13:48:04.379Z,3.25
2023-09-06T13:51:07.292Z,2.67
2023-09-06T13:54:10.643Z,2.80
2023-09-06T13:57:13.416Z,2.55
2023-09-06T14:00:17.810Z,3.62
2023-09-06T14:03:21.429Z,3.33
2023-09-06T14:06:24.758Z,2.80
2023-09-06T14:09:27.837Z,2.77
2023-09-06T14:12:30.837Z,3.05
2023-09-06T14:15:37.007Z,3.35
2023-09-06T14:22:00.092Z,3.03
2023-09-06T14:25:02.684Z,3.33
2023-09-06T14:28:05.947Z,3.55
2023-09-06T14:31:12.291Z,2.78
2023-09-06T14:34:16.869Z,3.30
2023-09-06T14:37:19.765Z,3.20
2023-09-06T14:40:22.778Z,2.80
2023-09-06T14:43:26.006Z,2.87
2023-09-06T14:46:29.103Z,2.60
2023-09-06T14:49:31.840Z,2.80
2023-09-06T14:52:34.950Z,3.00
2023-09-06T14:55:37.934Z,3.10
2023-09-06T14:58:42.642Z,2.60
2023-09-06T15:01:46.840Z,2.72
2023-09-06T15:04:51.204Z,3.00
2023-09-06T15:07:54.940Z,2.80
2023-09-06T15:11:00.547Z,3.30
2023-09-06T15:14:06.391Z,2.70
2023-09-06T15:17:09.884Z,2.95
2023-09-06T15:20:13.540Z,3.22
2023-09-06T15:23:17.445Z,2.97
2023-09-06T15:26:22.571Z,2.43
2023-09-06T15:29:26.099Z,2.80
2023-09-06T15:32:29.244Z,3.67
2023-09-06T15:35:32.871Z,2.30
2023-09-06T15:38:39.974Z,2.97
2023-09-06T15:41:43.300Z,3.00
2023-09-06T15:44:46.333Z,2.90
2023-09-06T15:47:51.412Z,2.70
2023-09-06T15:50:54.603Z,2.90
2023-09-06T15:53:58.173Z,2.70
2023-09-06T15:57:01.251Z,2.60
2023-09-06T16:00:24.362Z,2.65
2023-09-06T16:03:34.154Z,3.00
2023-09-06T16:06:37.831Z,2.78
2023-09-06T16:09:43.014Z,3.00
2023-09-06T16:12:49.175Z,2.70
2023-09-06T16:15:58.054Z,2.75
2023-09-06T16:19:04.022Z,2.42
2023-09-06T16:22:08.506Z,2.62
2023-09-06T16:25:12.684Z,2.47
2023-09-06T16:28:21.103Z,2.57
2023-09-06T16:31:26.684Z,2.35
2023-09-06T16:34:31.405Z,2.95
2023-09-06T16:37:36.233Z,2.67
2023-09-06T16:40:43.772Z,2.57
2023-09-06T16:43:47.482Z,2.97
2023-09-06T16:46:52.537Z,3.78
2023-09-06T16:49:56.032Z,3.00
2023-09-06T16:52:59.387Z,3.37
2023-09-06T16:56:04.588Z,2.97
2023-09-06T16:59:10.385Z,3.10
2023-09-06T17:02:13.680Z,3.80
2023-09-06T17:05:17.470Z,3.78
2023-09-06T17:08:20.530Z,3.20
2023-09-06T17:11:24.481Z,3.60
2023-09-06T17:14:27.793Z,3.30
2023-09-06T17:17:31.991Z,3.00
2023-09-06T17:20:36.766Z,3.00
2023-09-06T17:24:00.678Z,3.78
2023-09-06T17:27:06.065Z,3.20
2023-09-06T17:30:11.619Z,3.27
2023-09-06T17:33:16.772Z,3.53
2023-09-06T17:36:20.681Z,3.47
2023-09-06T17:39:24.788Z,3.00
2023-09-06T17:42:32.892Z,2.87
2023-09-06T17:45:36.217Z,3.13
2023-09-06T17:48:40.678Z,3.53
2023-09-06T17:51:46.088Z,3.40
2023-09-06T17:54:50.727Z,4.30
2023-09-06T17:57:55.114Z,3.17
2023-09-06T18:01:00.333Z,2.97
2023-09-06T18:04:11.828Z,3.00
2023-09-06T18:07:18.408Z,2.85
2023-09-06T18:10:26.656Z,3.05
2023-09-06T18:13:31.526Z,3.10
2023-09-06T18:16:43.877Z,2.90
2023-09-06T18:19:48.507Z,2.90
2023-09-06T18:22:52.468Z,3.25
2023-09-06T18:25:57.864Z,3.12
2023-09-06T18:29:03.278Z,3.10
2023-09-06T18:32:09.949Z,3.30
2023-09-06T18:35:18.742Z,3.30
2023-09-06T18:38:23.604Z,3.25
2023-09-06T18:41:29.454Z,3.60
2023-09-06T18:44:32.948Z,3.67
2023-09-06T18:47:51.542Z,3.73
2023-09-06T18:50:55.929Z,3.25
2023-09-06T18:54:02.941Z,3.65
2023-09-06T18:57:12.220Z,3.40
2023-09-06T19:00:23.623Z,3.30
2023-09-06T19:03:31.629Z,3.43
2023-09-06T19:06:36.099Z,3.87
2023-09-06T19:09:41.156Z,3.53
2023-09-06T19:12:47.621Z,3.80
2023-09-06T19:15:53.537Z,4.03
2023-09-06T19:19:00.073Z,3.73
2023-09-06T19:22:05.625Z,4.03
2023-09-06T19:25:11.174Z,3.80
2023-09-06T19:28:15.208Z,3.62
2023-09-06T19:31:22.526Z,3.53
2023-09-06T19:34:33.650Z,3.40
2023-09-06T19:37:39.693Z,3.15
2023-09-06T19:40:44.309Z,4.10
2023-09-06T19:43:50.081Z,3.28
2023-09-06T19:46:57.352Z,3.70
2023-09-06T19:50:01.113Z,3.50
2023-09-06T19:53:07.820Z,3.72
2023-09-06T19:56:18.387Z,3.55
2023-09-06T19:59:22.970Z,4.18
2023-09-06T20:02:29.242Z,3.90
2023-09-06T20:05:34.958Z,3.70
2023-09-06T20:08:39.328Z,3.55
2023-09-06T20:11:44.522Z,3.60
2023-09-06T20:14:50.040Z,3.90
2023-09-06T20:17:57.680Z,3.60
2023-09-06T20:21:07.308Z,3.90
2023-09-06T20:24:14.202Z,3.87
2023-09-06T20:27:18.270Z,3.45
2023-09-06T20:30:25.430Z,3.40
2023-09-06T20:33:29.192Z,3.50
2023-09-06T20:36:34.747Z,3.40
2023-09-06T20:39:38.253Z,3.90
2023-09-06T20:42:42.188Z,4.80
2023-09-06T20:45:46.510Z,6.18
2023-09-06T20:48:50.360Z,6.57
2023-09-06T20:51:53.847Z,6.73
2023-09-06T20:54:57.555Z,6.75
2023-09-06T20:58:00.912Z,6.60
2023-09-06T21:01:20.761Z,6.40
2023-09-06T21:04:24.438Z,6.07
2023-09-06T21:07:27.639Z,6.40
2023-09-06T21:10:31.197Z,6.25
2023-09-06T21:13:34.513Z,6.03
2023-09-06T21:16:37.328Z,6.40
2023-09-06T21:19:40.726Z,7.00
2023-09-06T21:22:43.538Z,5.73
2023-09-06T21:25:47.138Z,5.50
2023-09-06T21:28:49.843Z,5.93
2023-09-06T21:31:52.945Z,5.60
2023-09-06T21:34:56.067Z,5.80
2023-09-06T21:37:59.102Z,5.00
2023-09-06T21:41:02.757Z,5.22
2023-09-06T21:44:05.988Z,4.93
2023-09-06T21:47:08.884Z,4.90
2023-09-06T21:50:12.086Z,5.70
2023-09-06T21:53:14.868Z,4.80
2023-09-06T21:56:18.140Z,5.60
2023-09-06T21:59:22.085Z,5.47
2023-09-06T22:02:24.626Z,4.82
2023-09-06T22:05:45.998Z,4.73
2023-09-06T22:09:07.330Z,4.73
2023-09-06T22:12:28.345Z,4.87
2023-09-06T22:15:31.832Z,4.75
2023-09-06T22:18:34.524Z,5.03
2023-09-06T22:21:37.574Z,5.13
2023-09-06T22:24:40.396Z,4.60
2023-09-06T22:27:44.264Z,5.25
2023-09-06T22:30:47.402Z,4.97
2023-09-06T22:33:50.786Z,4.90
2023-09-06T22:36:53.642Z,4.63
2023-09-06T22:39:56.705Z,4.50
2023-09-06T22:42:59.510Z,5.65
2023-09-06T22:46:02.826Z,4.50
2023-09-06T22:49:05.757Z,5.00
2023-09-06T22:52:10.690Z,4.57
2023-09-06T22:55:13.547Z,5.00
2023-09-06T22:58:16.617Z,4.57
2023-09-06T23:01:19.554Z,4.57
2023-09-06T23:04:22.769Z,4.93
2023-09-06T23:07:27.122Z,4.90
2023-09-06T23:10:30.633Z,4.60
2023-09-06T23:13:33.502Z,4.57
2023-09-06T23:16:37.083Z,4.65
2023-09-06T23:19:49.796Z,5.15
2023-09-06T23:22:56.100Z,5.33
2023-09-06T23:26:00.125Z,4.57
2023-09-06T23:29:08.342Z,4.20
2023-09-06T23:32:15.829Z,4.95
2023-09-06T23:35:22.015Z,4.30
2023-09-06T23:38:26.345Z,4.80
2023-09-06T23:41:29.634Z,4.80
2023-09-06T23:44:32.515Z,4.80
2023-09-06T23:47:36.421Z,4.65
2023-09-06T23:50:39.244Z,4.93
2023-09-06T23:53:42.366Z,5.30
2023-09-06T23:56:45.053Z,4.97
2023-09-06T23:59:48.263Z,4.90
